Aviation Digital Data Service (ADDS)

Output produced by METARs form (0025 UTC 30 May 2020)
found at http://www.aviationweather.gov/metar/data/
 
METAR text: KFAT 292353Z 00000KT 10SM BKN120 BKN150 34/09 A2974 RMK AO2 SLP066 T03390094 10350 20294 58013
Conditions at: KFAT (FRESNO , CA, US) observed 2353 UTC 29 May 2020
Temperature: 33.9°C (93°F)
Dewpoint: 9.4°C (49°F) [RH = 22%]
Pressure (altimeter): 29.74 inches Hg (1007.2 mb)
[Sea-level pressure: 1006.6 mb]
Winds: calm
Visibility: 10 or more miles (16+ km)
Ceiling: 12000 feet AGL
Clouds: broken clouds at 12000 feet AGL
broken clouds at 15000 feet AGL
Weather: no significant weather observed at this time

Forecast for: KFAT (FRESNO , CA, US)
Text: KFAT 292320Z 3000/3024 29010KT P6SM BKN120 BKN150
Forecast period: 0000 to 1200 UTC 30 May 2020
Forecast type: FROM: standard forecast or significant change
Winds: from the WNW (290 degrees) at 12 MPH (10 knots; 5.1 m/s)
Visibility: 6 or more miles 10+ km)
Ceiling: 12000 feet AGL
Clouds: broken clouds at 12000 feet AGL
broken clouds at 15000 feet AGL
Weather: no significant weather forecast for this period
Text: FM301200 15006KT P6SM OVC200
Forecast period: 1200 UTC 30 May 2020 to 0000 UTC 31 May 2020
Forecast type: FROM: standard forecast or significant change
Winds: from the SSE (150 degrees) at 7 MPH (6 knots; 3.1 m/s)
Visibility: 6 or more miles 10+ km)
Ceiling: 20000 feet AGL
Clouds: overcast cloud deck at 20000 feet AGL
Weather: no significant weather forecast for this period